Time;durP1;ratioP1;P1;durP2;ratioP2;P2;SDS_P1;SDS_P2;PMS_P1;PMS_P2;Temp;Humidity;BMP_temperature;BMP_pressure;BME280_temperature;BME280_humidity;BME280_pressure;Samples;Min_cycle;Max_cycle;Signal;HPM_P1;HPM_P2
2023/12/31 00:01:52;;;;;;;9.57;4.78;;;;;;;;;;5042256;28;20447;-68
2023/12/31 00:04:23;;;;;;;6.70;4.65;;;;;;;;;;5036259;28;20433;-68
2023/12/31 00:06:50;;;;;;;6.55;4.53;;;;;;;;;;5039417;28;20436;-68
2023/12/31 00:09:17;;;;;;;7.13;4.82;;;;;;;;;;5039383;28;20512;-71
2023/12/31 00:11:44;;;;;;;6.90;4.85;;;;;;;;;;5041594;28;20433;-68
2023/12/31 00:14:11;;;;;;;7.67;4.60;;;;;;;;;;5041603;28;20433;-68
2023/12/31 00:16:38;;;;;;;6.72;5.18;;;;;;;;;;5046493;28;20900;-69
2023/12/31 00:19:08;;;;;;;9.98;4.95;;;;;;;;;;5039912;28;20427;-67
2023/12/31 00:21:36;;;;;;;8.95;5.05;;;;;;;;;;5034770;28;20442;-68
2023/12/31 00:24:03;;;;;;;8.75;5.85;;;;;;;;;;5044449;28;20434;-67
2023/12/31 00:26:33;;;;;;;10.35;5.80;;;;;;;;;;5043011;28;20495;-67
2023/12/31 00:29:03;;;;;;;10.45;5.53;;;;;;;;;;5041987;28;20461;-68
2023/12/31 00:31:30;;;;;;;8.50;5.65;;;;;;;;;;5039543;28;20435;-69
2023/12/31 00:33:57;;;;;;;9.70;5.47;;;;;;;;;;5045972;28;20504;-67
2023/12/31 00:36:27;;;;;;;8.27;5.43;;;;;;;;;;5035565;28;20434;-67
2023/12/31 00:38:57;;;;;;;8.18;5.00;;;;;;;;;;5047478;28;20512;-68
2023/12/31 00:41:24;;;;;;;9.57;5.45;;;;;;;;;;5034349;28;20509;-68
2023/12/31 00:43:58;;;;;;;8.18;5.10;;;;;;;;;;5046045;28;20441;-67
2023/12/31 00:46:25;;;;;;;5.20;4.70;;;;;;;;;;5032269;28;20518;-69
2023/12/31 00:48:52;;;;;;;7.20;4.97;;;;;;;;;;5048621;28;20452;-69
2023/12/31 00:51:20;;;;;;;7.43;4.50;;;;;;;;;;5042477;28;20435;-69
2023/12/31 00:53:47;;;;;;;6.45;4.70;;;;;;;;;;5036435;28;21159;-69
2023/12/31 00:56:14;;;;;;;8.13;4.80;;;;;;;;;;5040574;28;20453;-67
2023/12/31 00:58:44;;;;;;;5.47;4.30;;;;;;;;;;5047359;28;20425;-68
2023/12/31 01:01:12;;;;;;;6.55;4.28;;;;;;;;;;5042866;28;20438;-67
2023/12/31 01:03:42;;;;;;;7.18;4.32;;;;;;;;;;5047793;28;20475;-67
2023/12/31 01:06:11;;;;;;;6.80;4.45;;;;;;;;;;5041825;28;20437;-67
2023/12/31 01:08:39;;;;;;;6.93;4.18;;;;;;;;;;5029911;28;20427;-67
2023/12/31 01:11:07;;;;;;;6.67;4.23;;;;;;;;;;5042948;28;20433;-67
2023/12/31 01:13:34;;;;;;;5.13;4.63;;;;;;;;;;5035037;28;20432;-67
2023/12/31 01:16:04;;;;;;;7.60;4.00;;;;;;;;;;5037241;28;20433;-68
2023/12/31 01:18:31;;;;;;;7.88;4.10;;;;;;;;;;5033609;28;20431;-68
2023/12/31 01:20:59;;;;;;;5.70;3.90;;;;;;;;;;5040044;28;21177;-67
2023/12/31 01:23:29;;;;;;;6.72;4.15;;;;;;;;;;5035287;28;20934;-68
2023/12/31 01:25:56;;;;;;;5.35;4.03;;;;;;;;;;5041058;28;20867;-67
2023/12/31 01:28:23;;;;;;;5.00;3.63;;;;;;;;;;5034886;28;20435;-67
2023/12/31 01:30:50;;;;;;;5.57;3.90;;;;;;;;;;5033117;28;20442;-67
2023/12/31 01:33:18;;;;;;;4.88;4.00;;;;;;;;;;5042494;28;20462;-67
2023/12/31 01:35:45;;;;;;;5.38;4.13;;;;;;;;;;5042863;28;20433;-67
2023/12/31 01:38:12;;;;;;;5.47;4.15;;;;;;;;;;5040626;28;20427;-67
2023/12/31 01:40:39;;;;;;;4.97;4.27;;;;;;;;;;5044829;28;20429;-67
2023/12/31 01:43:07;;;;;;;5.00;3.80;;;;;;;;;;5036422;28;20454;-68
2023/12/31 01:45:34;;;;;;;5.70;3.55;;;;;;;;;;5034120;28;21210;-67
2023/12/31 01:48:01;;;;;;;3.63;3.33;;;;;;;;;;5036929;28;20846;-68
2023/12/31 01:50:29;;;;;;;4.50;3.13;;;;;;;;;;5039022;28;20797;-68
2023/12/31 01:52:56;;;;;;;3.88;3.08;;;;;;;;;;5027293;28;20443;-67
2023/12/31 01:55:24;;;;;;;4.05;3.22;;;;;;;;;;5039115;28;21245;-67
2023/12/31 01:57:51;;;;;;;3.67;3.17;;;;;;;;;;5029928;28;20952;-67
2023/12/31 02:00:18;;;;;;;4.68;3.25;;;;;;;;;;5041862;28;20468;-67
2023/12/31 02:02:54;;;;;;;5.20;3.75;;;;;;;;;;5033453;28;20529;-67
2023/12/31 02:05:21;;;;;;;4.93;3.38;;;;;;;;;;5036784;28;20425;-67
2023/12/31 02:07:48;;;;;;;4.22;3.80;;;;;;;;;;5034060;28;20425;-68
2023/12/31 02:10:18;;;;;;;5.22;3.67;;;;;;;;;;5038353;28;20437;-68
2023/12/31 02:12:45;;;;;;;4.50;3.17;;;;;;;;;;5037493;28;20416;-67
2023/12/31 02:15:12;;;;;;;4.72;3.85;;;;;;;;;;5036345;28;20439;-67
2023/12/31 02:17:39;;;;;;;5.50;3.35;;;;;;;;;;5047130;28;20429;-67
2023/12/31 02:20:08;;;;;;;4.23;3.53;;;;;;;;;;5034385;28;20440;-68
2023/12/31 02:22:35;;;;;;;3.80;3.50;;;;;;;;;;5046242;28;20522;-67
2023/12/31 02:25:06;;;;;;;3.85;3.15;;;;;;;;;;5034835;28;20435;-68
2023/12/31 02:27:33;;;;;;;5.60;3.20;;;;;;;;;;5036853;28;20431;-68
2023/12/31 02:30:00;;;;;;;5.68;3.33;;;;;;;;;;5033255;28;20909;-67
2023/12/31 02:32:28;;;;;;;5.07;3.17;;;;;;;;;;5035478;28;20432;-68
2023/12/31 02:34:55;;;;;;;4.35;3.22;;;;;;;;;;5037249;28;20426;-68
2023/12/31 02:37:27;;;;;;;3.30;2.95;;;;;;;;;;5036656;28;20431;-68
2023/12/31 02:39:54;;;;;;;4.00;2.70;;;;;;;;;;5038732;28;20427;-68
2023/12/31 02:42:22;;;;;;;3.55;3.25;;;;;;;;;;5040967;28;21032;-68
2023/12/31 02:44:49;;;;;;;5.73;3.70;;;;;;;;;;5037402;28;20433;-67
2023/12/31 02:47:16;;;;;;;5.10;3.22;;;;;;;;;;5027177;28;20437;-67
2023/12/31 02:49:45;;;;;;;4.35;3.10;;;;;;;;;;5044036;28;20500;-67
2023/12/31 02:52:16;;;;;;;4.13;3.00;;;;;;;;;;5032616;28;20504;-68
2023/12/31 02:54:45;;;;;;;4.22;3.25;;;;;;;;;;5038955;28;20431;-67
2023/12/31 02:57:13;;;;;;;4.05;3.63;;;;;;;;;;5035547;28;20430;-67
2023/12/31 02:59:40;;;;;;;4.90;3.20;;;;;;;;;;5039605;28;20494;-67
2023/12/31 03:02:07;;;;;;;4.53;3.25;;;;;;;;;;5042416;28;21208;-68
2023/12/31 03:04:34;;;;;;;6.15;3.60;;;;;;;;;;5035321;28;20426;-67
2023/12/31 03:07:01;;;;;;;4.57;3.70;;;;;;;;;;5037356;28;20431;-67
2023/12/31 03:09:28;;;;;;;4.22;3.80;;;;;;;;;;5032528;28;20434;-68
2023/12/31 03:11:56;;;;;;;8.77;3.80;;;;;;;;;;5029338;28;20434;-68
2023/12/31 03:14:23;;;;;;;5.47;3.35;;;;;;;;;;5034664;28;20541;-68
2023/12/31 03:16:50;;;;;;;6.03;3.47;;;;;;;;;;5049723;28;20511;-68
2023/12/31 03:19:17;;;;;;;4.03;3.43;;;;;;;;;;5048608;28;20432;-67
2023/12/31 03:21:45;;;;;;;6.53;3.50;;;;;;;;;;5050602;28;20539;-67
2023/12/31 03:24:15;;;;;;;4.63;3.55;;;;;;;;;;5046908;28;20435;-68
2023/12/31 03:26:45;;;;;;;5.10;3.55;;;;;;;;;;5051586;28;20432;-67
2023/12/31 03:29:16;;;;;;;4.65;3.40;;;;;;;;;;5040226;28;20469;-67
2023/12/31 03:31:43;;;;;;;4.47;3.40;;;;;;;;;;5043669;28;20510;-67
2023/12/31 03:34:10;;;;;;;4.50;3.47;;;;;;;;;;5047602;28;20428;-67
2023/12/31 03:36:41;;;;;;;5.87;3.30;;;;;;;;;;5048891;28;20464;-67
2023/12/31 03:39:08;;;;;;;4.93;3.35;;;;;;;;;;5040167;28;20431;-68
2023/12/31 03:41:35;;;;;;;5.88;3.60;;;;;;;;;;5044084;28;20431;-68
2023/12/31 03:44:03;;;;;;;4.78;3.65;;;;;;;;;;5046358;28;20430;-68
2023/12/31 03:46:30;;;;;;;5.17;3.50;;;;;;;;;;5045797;28;20437;-68
2023/12/31 03:48:57;;;;;;;6.35;3.58;;;;;;;;;;5050473;28;20942;-67
2023/12/31 03:51:25;;;;;;;4.22;3.33;;;;;;;;;;5038769;28;20894;-68
2023/12/31 03:53:52;;;;;;;4.32;3.20;;;;;;;;;;5041450;28;20424;-67
2023/12/31 03:56:19;;;;;;;3.90;3.13;;;;;;;;;;5031552;28;20431;-68
2023/12/31 03:58:46;;;;;;;4.10;3.13;;;;;;;;;;5030851;28;20493;-68
2023/12/31 04:01:16;;;;;;;4.13;3.10;;;;;;;;;;5041816;28;20941;-67
2023/12/31 04:03:46;;;;;;;4.78;2.72;;;;;;;;;;5047017;28;20429;-67
2023/12/31 04:06:13;;;;;;;3.05;2.70;;;;;;;;;;5038563;28;20435;-68
2023/12/31 04:08:40;;;;;;;4.45;3.03;;;;;;;;;;5041913;28;20441;-68
2023/12/31 04:11:07;;;;;;;3.20;2.60;;;;;;;;;;5048433;28;20488;-68
2023/12/31 04:13:37;;;;;;;4.47;2.88;;;;;;;;;;5035779;28;20423;-68
2023/12/31 04:16:05;;;;;;;4.13;3.30;;;;;;;;;;5039425;28;20443;-68
2023/12/31 04:18:32;;;;;;;3.10;2.80;;;;;;;;;;5037889;28;20512;-68
2023/12/31 04:20:59;;;;;;;4.53;2.72;;;;;;;;;;5039087;28;20472;-67
2023/12/31 04:23:27;;;;;;;3.35;2.88;;;;;;;;;;5041795;28;20521;-67
2023/12/31 04:25:54;;;;;;;4.32;2.90;;;;;;;;;;5041215;28;20511;-68
2023/12/31 04:28:27;;;;;;;5.38;3.10;;;;;;;;;;5034386;28;20804;-67
2023/12/31 04:30:55;;;;;;;4.28;2.70;;;;;;;;;;5045410;28;21186;-68
2023/12/31 04:33:22;;;;;;;3.38;2.75;;;;;;;;;;5043753;28;20449;-67
2023/12/31 04:35:49;;;;;;;3.63;2.70;;;;;;;;;;5038641;28;20492;-68
2023/12/31 04:38:18;;;;;;;4.70;3.28;;;;;;;;;;5048623;28;20516;-68
2023/12/31 04:40:45;;;;;;;3.35;3.05;;;;;;;;;;5035922;28;20434;-68
2023/12/31 04:43:12;;;;;;;5.18;2.95;;;;;;;;;;5039809;28;20522;-67
2023/12/31 04:45:40;;;;;;;4.72;2.70;;;;;;;;;;5043378;28;20524;-68
2023/12/31 04:48:07;;;;;;;4.15;3.00;;;;;;;;;;5043303;28;21227;-68
2023/12/31 04:50:34;;;;;;;3.30;3.00;;;;;;;;;;5032263;28;20442;-68
2023/12/31 04:53:05;;;;;;;4.63;3.05;;;;;;;;;;5037023;28;20438;-68
2023/12/31 04:55:34;;;;;;;4.55;2.50;;;;;;;;;;5037030;28;20430;-68
2023/12/31 04:58:04;;;;;;;2.97;2.63;;;;;;;;;;5038342;28;21086;-68
2023/12/31 05:00:31;;;;;;;3.58;2.42;;;;;;;;;;5029807;28;20431;-67
2023/12/31 05:02:58;;;;;;;4.45;2.50;;;;;;;;;;5045570;28;20427;-68
2023/12/31 05:05:26;;;;;;;4.00;2.50;;;;;;;;;;5033598;28;20503;-68
2023/12/31 05:07:53;;;;;;;3.55;3.00;;;;;;;;;;5038464;28;20472;-68
2023/12/31 05:10:26;;;;;;;3.22;2.45;;;;;;;;;;5029771;28;20430;-68
2023/12/31 05:12:54;;;;;;;2.63;2.42;;;;;;;;;;5035681;28;20516;-68
2023/12/31 05:15:23;;;;;;;4.07;2.60;;;;;;;;;;5041542;28;20441;-68
2023/12/31 05:17:50;;;;;;;3.33;2.65;;;;;;;;;;5046835;28;20431;-67
2023/12/31 05:20:18;;;;;;;3.20;2.47;;;;;;;;;;5037454;28;20504;-68
2023/12/31 05:22:48;;;;;;;3.92;2.60;;;;;;;;;;5037344;28;20910;-68
2023/12/31 05:25:15;;;;;;;3.85;2.70;;;;;;;;;;5043643;28;20471;-67
2023/12/31 05:27:45;;;;;;;3.90;2.58;;;;;;;;;;5034514;28;20889;-68
2023/12/31 05:30:16;;;;;;;4.25;2.35;;;;;;;;;;5046711;28;20520;-67
2023/12/31 05:32:49;;;;;;;2.75;2.55;;;;;;;;;;5040022;28;20431;-68
2023/12/31 05:35:16;;;;;;;2.70;2.50;;;;;;;;;;5034818;28;20913;-68
2023/12/31 05:37:44;;;;;;;6.22;2.78;;;;;;;;;;5031534;28;20634;-68
2023/12/31 05:40:11;;;;;;;3.20;2.90;;;;;;;;;;5035111;28;20764;-68
2023/12/31 05:42:38;;;;;;;4.25;3.22;;;;;;;;;;5035301;28;20423;-68
2023/12/31 05:45:06;;;;;;;4.22;2.47;;;;;;;;;;5041704;28;20482;-68
2023/12/31 05:47:33;;;;;;;3.22;2.65;;;;;;;;;;5040007;28;20531;-68
2023/12/31 05:50:13;;;;;;;3.15;2.80;;;;;;;;;;5041777;28;20441;-68
2023/12/31 05:52:41;;;;;;;6.32;3.70;;;;;;;;;;5036174;28;20515;-68
2023/12/31 05:55:08;;;;;;;4.65;3.25;;;;;;;;;;5039141;28;20804;-68
2023/12/31 05:57:35;;;;;;;4.83;3.67;;;;;;;;;;5048252;28;21250;-68
2023/12/31 06:00:05;;;;;;;7.20;3.38;;;;;;;;;;5038954;28;20431;-68
2023/12/31 06:02:38;;;;;;;8.20;4.25;;;;;;;;;;5035203;28;20430;-68
2023/12/31 06:05:09;;;;;;;4.73;4.00;;;;;;;;;;5035638;28;20511;-68
2023/12/31 06:07:37;;;;;;;5.40;3.40;;;;;;;;;;5038031;28;20439;-68
2023/12/31 06:10:04;;;;;;;3.50;3.17;;;;;;;;;;5044727;28;20469;-67
2023/12/31 06:12:32;;;;;;;4.22;2.75;;;;;;;;;;5034951;28;21032;-68
2023/12/31 06:14:59;;;;;;;3.55;2.70;;;;;;;;;;5045316;28;20460;-67
2023/12/31 06:17:27;;;;;;;3.08;2.78;;;;;;;;;;5041751;28;20832;-68
2023/12/31 06:19:58;;;;;;;3.00;2.80;;;;;;;;;;5043218;28;20432;-68
2023/12/31 06:22:25;;;;;;;3.08;2.78;;;;;;;;;;5031332;28;20516;-68
2023/12/31 06:24:52;;;;;;;3.10;2.78;;;;;;;;;;5033395;28;20466;-68
2023/12/31 06:27:19;;;;;;;3.37;2.93;;;;;;;;;;5040299;28;20437;-69
2023/12/31 06:29:50;;;;;;;2.90;2.70;;;;;;;;;;5041134;28;20813;-67
2023/12/31 06:32:17;;;;;;;3.42;3.00;;;;;;;;;;5047433;28;20506;-68
2023/12/31 06:34:45;;;;;;;3.63;2.90;;;;;;;;;;5041410;28;20425;-67
2023/12/31 06:37:15;;;;;;;3.00;2.70;;;;;;;;;;5038277;28;20427;-67
2023/12/31 06:39:43;;;;;;;2.80;2.45;;;;;;;;;;5042826;28;20433;-67
2023/12/31 06:42:10;;;;;;;3.80;2.65;;;;;;;;;;5041291;28;20433;-67
2023/12/31 06:44:38;;;;;;;5.18;2.92;;;;;;;;;;5034224;28;20437;-67
2023/12/31 06:47:05;;;;;;;3.07;2.43;;;;;;;;;;5037677;28;20597;-67
2023/12/31 06:49:35;;;;;;;3.05;2.40;;;;;;;;;;5045140;28;20442;-68
2023/12/31 06:52:04;;;;;;;3.58;2.83;;;;;;;;;;5038745;28;20464;-67
2023/12/31 06:54:34;;;;;;;3.45;2.92;;;;;;;;;;5041525;28;20422;-66
2023/12/31 06:57:01;;;;;;;3.47;2.70;;;;;;;;;;5048441;28;20429;-67
2023/12/31 06:59:32;;;;;;;4.47;3.03;;;;;;;;;;5044529;28;20445;-66
2023/12/31 07:01:59;;;;;;;3.05;2.60;;;;;;;;;;5042314;28;20907;-67
2023/12/31 07:04:27;;;;;;;3.28;2.50;;;;;;;;;;5044670;28;20451;-67
2023/12/31 07:06:54;;;;;;;2.78;2.40;;;;;;;;;;5034250;28;20513;-67
2023/12/31 07:09:21;;;;;;;3.15;2.85;;;;;;;;;;5049776;28;20980;-67
2023/12/31 07:11:48;;;;;;;4.18;3.25;;;;;;;;;;5045838;28;20428;-67
2023/12/31 07:14:16;;;;;;;2.88;2.60;;;;;;;;;;5038528;28;20528;-67
2023/12/31 07:16:43;;;;;;;3.30;2.90;;;;;;;;;;5033920;28;20431;-67
2023/12/31 07:19:10;;;;;;;5.75;4.28;;;;;;;;;;5051158;28;20519;-67
2023/12/31 07:21:37;;;;;;;14.43;10.00;;;;;;;;;;5037926;28;20422;-67
2023/12/31 07:24:05;;;;;;;5.07;4.25;;;;;;;;;;5045419;28;20953;-67
2023/12/31 07:26:32;;;;;;;7.03;4.57;;;;;;;;;;5041844;28;20434;-67
2023/12/31 07:28:59;;;;;;;4.93;4.20;;;;;;;;;;5046145;28;20439;-68
2023/12/31 07:31:37;;;;;;;3.40;2.85;;;;;;;;;;5043242;28;20516;-67
2023/12/31 07:34:05;;;;;;;13.90;7.43;;;;;;;;;;5044519;28;20507;-67
2023/12/31 07:36:33;;;;;;;22.42;10.95;;;;;;;;;;5042462;28;20427;-68
2023/12/31 07:39:00;;;;;;;24.60;14.37;;;;;;;;;;5044765;28;20467;-67
2023/12/31 07:41:28;;;;;;;3.05;2.85;;;;;;;;;;5039254;28;20457;-68
2023/12/31 07:43:55;;;;;;;4.22;3.40;;;;;;;;;;5033471;28;20433;-67
2023/12/31 07:46:23;;;;;;;6.15;5.50;;;;;;;;;;5038316;28;20439;-67
2023/12/31 07:48:52;;;;;;;8.97;6.73;;;;;;;;;;5045461;28;20486;-67
2023/12/31 07:51:20;;;;;;;8.70;6.28;;;;;;;;;;5041021;28;20491;-67
2023/12/31 07:53:51;;;;;;;15.15;10.88;;;;;;;;;;5046839;28;20519;-67
2023/12/31 07:56:18;;;;;;;28.23;17.30;;;;;;;;;;5042645;28;20494;-67
2023/12/31 07:58:45;;;;;;;15.67;10.90;;;;;;;;;;5030320;28;20505;-67
2023/12/31 08:01:13;;;;;;;8.05;6.00;;;;;;;;;;5040722;28;20932;-68
2023/12/31 08:03:40;;;;;;;2.95;2.72;;;;;;;;;;5042174;28;20433;-67
2023/12/31 08:06:07;;;;;;;3.03;2.73;;;;;;;;;;5047208;28;20432;-67
2023/12/31 08:08:37;;;;;;;3.33;2.85;;;;;;;;;;5041959;28;20921;-67
2023/12/31 08:11:12;;;;;;;3.08;2.72;;;;;;;;;;5038546;28;20499;-67
2023/12/31 08:13:45;;;;;;;3.15;2.85;;;;;;;;;;5036092;28;20427;-67
2023/12/31 08:16:13;;;;;;;3.75;3.15;;;;;;;;;;5030594;28;20493;-68
2023/12/31 08:18:40;;;;;;;5.95;3.70;;;;;;;;;;5039016;28;20427;-67
2023/12/31 08:21:10;;;;;;;3.67;3.20;;;;;;;;;;5039406;28;20465;-67
2023/12/31 08:23:37;;;;;;;4.15;3.85;;;;;;;;;;5044040;28;20444;-67
2023/12/31 08:26:07;;;;;;;3.42;3.08;;;;;;;;;;5039037;28;20819;-67
2023/12/31 08:28:37;;;;;;;3.13;2.90;;;;;;;;;;5033625;28;20914;-68
2023/12/31 08:31:12;;;;;;;3.42;3.20;;;;;;;;;;5034531;28;20444;-67
2023/12/31 08:33:40;;;;;;;3.50;2.75;;;;;;;;;;5039802;28;20428;-66
2023/12/31 08:36:07;;;;;;;2.55;2.40;;;;;;;;;;5039210;28;20431;-67
2023/12/31 08:38:34;;;;;;;2.47;2.33;;;;;;;;;;5045109;28;20464;-67
2023/12/31 08:41:02;;;;;;;2.22;2.13;;;;;;;;;;5037381;28;20432;-67
2023/12/31 08:43:29;;;;;;;3.95;2.50;;;;;;;;;;5045634;28;20519;-67
2023/12/31 08:46:04;;;;;;;2.30;2.10;;;;;;;;;;5048433;28;20491;-67
2023/12/31 08:48:31;;;;;;;2.20;2.10;;;;;;;;;;5044479;28;20524;-66
2023/12/31 08:51:05;;;;;;;2.20;2.08;;;;;;;;;;5034627;28;20955;-66
2023/12/31 08:53:32;;;;;;;2.20;2.10;;;;;;;;;;5033998;28;20440;-69
2023/12/31 08:56:00;;;;;;;3.90;2.17;;;;;;;;;;5040601;28;20441;-68
2023/12/31 08:58:27;;;;;;;1.83;1.73;;;;;;;;;;5038935;28;20897;-67
2023/12/31 09:00:54;;;;;;;1.55;1.40;;;;;;;;;;5044482;28;20502;-67
2023/12/31 09:03:27;;;;;;;1.90;1.80;;;;;;;;;;5044224;28;22031;-67
2023/12/31 09:05:54;;;;;;;1.58;1.48;;;;;;;;;;5035080;28;20432;-67
2023/12/31 09:08:24;;;;;;;1.85;1.60;;;;;;;;;;5038859;28;20947;-67
2023/12/31 09:10:54;;;;;;;1.43;1.33;;;;;;;;;;5035290;28;20441;-67
2023/12/31 09:13:22;;;;;;;1.60;1.50;;;;;;;;;;5035449;28;20983;-67
2023/12/31 09:15:49;;;;;;;3.15;1.52;;;;;;;;;;5038418;28;20429;-67
2023/12/31 09:18:17;;;;;;;1.50;1.40;;;;;;;;;;5033674;28;20434;-68
2023/12/31 09:20:45;;;;;;;1.93;1.83;;;;;;;;;;5036845;28;20434;-67
2023/12/31 09:23:12;;;;;;;1.60;1.60;;;;;;;;;;5036633;28;21108;-67
2023/12/31 09:25:39;;;;;;;1.70;1.60;;;;;;;;;;5035535;28;20439;-67
2023/12/31 09:28:06;;;;;;;1.60;1.50;;;;;;;;;;5033672;28;20455;-67
2023/12/31 09:30:34;;;;;;;1.73;1.63;;;;;;;;;;5035816;28;20441;-67
2023/12/31 09:33:07;;;;;;;1.90;1.80;;;;;;;;;;5047710;28;20461;-67
2023/12/31 09:35:35;;;;;;;2.28;2.10;;;;;;;;;;5043117;28;20502;-67
2023/12/31 09:38:02;;;;;;;2.65;1.90;;;;;;;;;;5036291;28;20430;-67
2023/12/31 09:40:29;;;;;;;2.10;1.95;;;;;;;;;;5038618;28;20429;-67
2023/12/31 09:42:56;;;;;;;2.13;1.92;;;;;;;;;;5041190;28;20431;-68
2023/12/31 09:45:24;;;;;;;1.90;1.80;;;;;;;;;;5042494;28;20959;-68
2023/12/31 09:47:53;;;;;;;2.20;2.00;;;;;;;;;;5038432;28;20436;-68
2023/12/31 09:50:23;;;;;;;2.53;2.33;;;;;;;;;;5043278;28;20441;-67
2023/12/31 09:52:57;;;;;;;2.35;2.15;;;;;;;;;;5038972;28;20851;-67
2023/12/31 09:55:25;;;;;;;3.30;2.30;;;;;;;;;;5041532;28;20451;-67
2023/12/31 09:57:53;;;;;;;2.15;2.05;;;;;;;;;;5043852;28;20436;-67
2023/12/31 10:00:26;;;;;;;2.50;2.30;;;;;;;;;;5042927;28;20439;-65
2023/12/31 10:02:54;;;;;;;3.58;2.50;;;;;;;;;;5037153;28;21032;-67
2023/12/31 10:05:22;;;;;;;2.50;2.30;;;;;;;;;;5033573;28;20580;-68
2023/12/31 10:07:54;;;;;;;2.83;2.50;;;;;;;;;;5028696;28;20433;-68
2023/12/31 10:10:22;;;;;;;2.60;2.40;;;;;;;;;;5042688;28;20437;-67
2023/12/31 10:12:49;;;;;;;2.72;2.13;;;;;;;;;;5044986;28;20491;-66
2023/12/31 10:15:16;;;;;;;2.55;2.35;;;;;;;;;;5036781;28;20429;-67
2023/12/31 10:17:43;;;;;;;2.80;2.47;;;;;;;;;;5027770;28;20774;-66
2023/12/31 10:20:11;;;;;;;2.33;2.17;;;;;;;;;;5035390;28;20500;-66
2023/12/31 10:22:41;;;;;;;2.58;2.38;;;;;;;;;;5042711;28;20523;-65
2023/12/31 10:25:19;;;;;;;2.55;2.35;;;;;;;;;;5038388;28;20469;-66
2023/12/31 10:27:47;;;;;;;3.50;2.33;;;;;;;;;;5033777;28;20521;-66
2023/12/31 10:30:18;;;;;;;2.60;2.30;;;;;;;;;;5032089;28;20829;-67
2023/12/31 10:32:46;;;;;;;2.80;2.38;;;;;;;;;;5040368;28;20527;-66
2023/12/31 10:35:20;;;;;;;2.30;2.10;;;;;;;;;;5042594;28;20429;-65
2023/12/31 10:37:47;;;;;;;2.10;2.00;;;;;;;;;;5040281;28;20429;-66
2023/12/31 10:40:22;;;;;;;2.00;1.90;;;;;;;;;;5027252;28;20607;-66
2023/12/31 10:42:56;;;;;;;2.90;2.22;;;;;;;;;;5035681;28;20965;-66
2023/12/31 10:45:26;;;;;;;2.22;2.03;;;;;;;;;;5035180;28;20450;-66
2023/12/31 10:47:56;;;;;;;2.35;2.25;;;;;;;;;;5032011;28;20434;-67
2023/12/31 10:50:26;;;;;;;2.30;2.10;;;;;;;;;;5037575;28;20523;-67
2023/12/31 10:52:57;;;;;;;2.20;2.10;;;;;;;;;;5043217;28;20964;-67
2023/12/31 10:55:24;;;;;;;2.10;2.00;;;;;;;;;;5035587;28;20488;-67
2023/12/31 10:57:55;;;;;;;2.05;1.90;;;;;;;;;;5043980;28;20432;-67
2023/12/31 11:00:22;;;;;;;2.08;1.98;;;;;;;;;;5043829;28;20507;-67
2023/12/31 11:02:53;;;;;;;2.97;2.10;;;;;;;;;;5040957;28;20437;-67
2023/12/31 11:05:22;;;;;;;2.13;2.03;;;;;;;;;;5035503;28;20444;-68
2023/12/31 11:07:50;;;;;;;2.73;2.00;;;;;;;;;;5034116;28;20465;-68
2023/12/31 11:10:20;;;;;;;2.87;1.73;;;;;;;;;;5042504;28;20894;-67
2023/12/31 11:12:48;;;;;;;2.72;2.00;;;;;;;;;;5045208;28;20464;-67
2023/12/31 11:15:18;;;;;;;2.20;2.00;;;;;;;;;;5036659;28;20433;-65
2023/12/31 11:17:49;;;;;;;2.20;2.10;;;;;;;;;;5036726;28;20457;-65
2023/12/31 11:20:35;;;;;;;3.30;2.03;;;;;;;;;;5032915;28;20427;-65
2023/12/31 11:23:10;;;;;;;2.67;2.47;;;;;;;;;;5036637;28;20457;-65
2023/12/31 11:25:38;;;;;;;2.70;2.50;;;;;;;;;;5042757;28;20433;-65
2023/12/31 11:28:07;;;;;;;2.80;2.60;;;;;;;;;;5043542;28;20441;-65
2023/12/31 11:30:53;;;;;;;4.05;2.80;;;;;;;;;;5031671;28;20470;-65
2023/12/31 11:33:27;;;;;;;2.45;2.33;;;;;;;;;;5030524;28;20733;-66
2023/12/31 11:35:59;;;;;;;2.90;2.70;;;;;;;;;;5049126;28;20528;-65
2023/12/31 11:38:27;;;;;;;3.13;2.83;;;;;;;;;;5030531;28;20513;-65
2023/12/31 11:40:54;;;;;;;3.05;2.70;;;;;;;;;;5039859;28;21108;-65
2023/12/31 11:43:23;;;;;;;3.10;2.80;;;;;;;;;;5044699;28;20432;-65
2023/12/31 11:45:51;;;;;;;3.35;3.05;;;;;;;;;;5046492;28;20787;-66
2023/12/31 11:48:24;;;;;;;3.60;2.92;;;;;;;;;;5034479;28;20431;-65
2023/12/31 11:51:01;;;;;;;3.60;3.30;;;;;;;;;;5042137;28;20529;-65
2023/12/31 11:53:50;;;;;;;3.33;2.78;;;;;;;;;;5046182;28;20436;-67
2023/12/31 11:56:18;;;;;;;3.00;2.78;;;;;;;;;;5031472;28;20519;-66
2023/12/31 11:58:46;;;;;;;3.28;2.95;;;;;;;;;;5048777;28;20429;-66
2023/12/31 12:01:13;;;;;;;2.83;2.50;;;;;;;;;;5040192;28;20422;-66
2023/12/31 12:03:40;;;;;;;2.60;2.40;;;;;;;;;;5041623;28;20446;-66
2023/12/31 12:06:07;;;;;;;2.65;2.45;;;;;;;;;;5046429;28;20791;-65
2023/12/31 12:08:39;;;;;;;3.53;2.58;;;;;;;;;;5040373;28;20430;-65
2023/12/31 12:11:07;;;;;;;2.67;2.47;;;;;;;;;;5046638;28;20787;-66
2023/12/31 12:13:35;;;;;;;2.58;2.38;;;;;;;;;;5039393;28;20483;-65
2023/12/31 12:16:02;;;;;;;3.47;2.45;;;;;;;;;;5041635;28;20844;-65
2023/12/31 12:18:29;;;;;;;2.50;2.10;;;;;;;;;;5039975;28;20526;-65
2023/12/31 12:20:59;;;;;;;3.07;2.30;;;;;;;;;;5042038;28;20429;-65
2023/12/31 12:23:26;;;;;;;1.67;1.50;;;;;;;;;;5040768;28;20774;-66
2023/12/31 12:25:53;;;;;;;2.10;1.60;;;;;;;;;;5035860;28;20439;-65
2023/12/31 12:28:21;;;;;;;1.52;1.40;;;;;;;;;;5036566;28;20470;-65
2023/12/31 12:30:49;;;;;;;1.67;1.58;;;;;;;;;;5041958;28;20437;-66
2023/12/31 12:33:17;;;;;;;1.50;1.40;;;;;;;;;;5036828;28;20524;-65
2023/12/31 12:35:45;;;;;;;1.20;1.00;;;;;;;;;;5043320;28;20425;-66
2023/12/31 12:38:13;;;;;;;0.93;0.77;;;;;;;;;;5040600;28;20439;-65
2023/12/31 12:40:41;;;;;;;2.03;0.60;;;;;;;;;;5038710;28;20899;-66
2023/12/31 12:43:12;;;;;;;1.45;0.57;;;;;;;;;;5042541;28;20494;-66
2023/12/31 12:45:39;;;;;;;0.50;0.40;;;;;;;;;;5046266;28;20434;-65
2023/12/31 12:48:06;;;;;;;1.20;0.50;;;;;;;;;;5044526;28;20435;-65
2023/12/31 12:50:34;;;;;;;1.17;0.50;;;;;;;;;;5031137;28;20956;-66
2023/12/31 12:53:01;;;;;;;0.50;0.50;;;;;;;;;;5040135;28;21047;-65
2023/12/31 12:55:28;;;;;;;0.60;0.50;;;;;;;;;;5038840;28;20433;-66
2023/12/31 12:57:58;;;;;;;0.80;0.60;;;;;;;;;;5030761;28;20441;-65
2023/12/31 13:00:26;;;;;;;0.50;0.50;;;;;;;;;;5045675;28;21172;-66
2023/12/31 13:02:53;;;;;;;1.63;0.63;;;;;;;;;;5042643;28;20516;-65
2023/12/31 13:05:20;;;;;;;0.38;0.38;;;;;;;;;;5039673;28;20462;-65
2023/12/31 13:07:47;;;;;;;0.45;0.45;;;;;;;;;;5039945;28;20487;-66
2023/12/31 13:10:15;;;;;;;1.10;0.50;;;;;;;;;;5039587;28;20425;-65
2023/12/31 13:12:48;;;;;;;1.02;0.60;;;;;;;;;;5044785;28;20435;-66
2023/12/31 13:15:15;;;;;;;0.65;0.40;;;;;;;;;;5036285;28;20455;-65
2023/12/31 13:17:42;;;;;;;0.95;0.47;;;;;;;;;;5043606;28;21088;-66
2023/12/31 13:20:15;;;;;;;0.80;0.60;;;;;;;;;;5033009;28;20427;-66
2023/12/31 13:22:44;;;;;;;1.13;0.52;;;;;;;;;;5034575;28;20493;-66
2023/12/31 13:25:11;;;;;;;1.15;0.50;;;;;;;;;;5045113;28;20489;-65
2023/12/31 13:27:40;;;;;;;0.60;0.60;;;;;;;;;;5030527;28;22061;-66
2023/12/31 13:30:08;;;;;;;0.68;0.55;;;;;;;;;;5037790;28;20429;-66
2023/12/31 13:32:35;;;;;;;0.75;0.50;;;;;;;;;;5032734;28;20605;-66
2023/12/31 13:35:03;;;;;;;0.50;0.50;;;;;;;;;;5035710;28;20428;-66
2023/12/31 13:37:31;;;;;;;0.57;0.50;;;;;;;;;;5038338;28;20433;-66
2023/12/31 13:40:02;;;;;;;0.63;0.63;;;;;;;;;;5043450;28;20458;-66
2023/12/31 13:42:32;;;;;;;0.97;0.60;;;;;;;;;;5040639;28;20472;-66
2023/12/31 13:44:59;;;;;;;0.50;0.50;;;;;;;;;;5036131;28;20434;-66
2023/12/31 13:47:27;;;;;;;1.25;0.80;;;;;;;;;;5042073;28;20437;-66
2023/12/31 13:49:54;;;;;;;0.75;0.70;;;;;;;;;;5038546;28;20421;-65
2023/12/31 13:52:21;;;;;;;1.38;0.60;;;;;;;;;;5040275;28;20546;-66
2023/12/31 13:54:49;;;;;;;0.60;0.60;;;;;;;;;;5044137;28;20464;-66
2023/12/31 13:57:17;;;;;;;1.30;0.65;;;;;;;;;;5044952;28;20445;-66
2023/12/31 13:59:44;;;;;;;2.22;0.70;;;;;;;;;;5036858;28;20513;-66
2023/12/31 14:02:17;;;;;;;0.82;0.70;;;;;;;;;;5036543;28;20465;-66
2023/12/31 14:04:46;;;;;;;2.00;0.70;;;;;;;;;;5040518;28;20427;-66
2023/12/31 14:07:14;;;;;;;3.15;0.80;;;;;;;;;;5041675;28;21199;-67
2023/12/31 14:09:57;;;;;;;0.73;0.50;;;;;;;;;;5043266;28;22386;-67
2023/12/31 14:12:25;;;;;;;1.17;0.60;;;;;;;;;;5040439;28;20429;-67
2023/12/31 14:14:55;;;;;;;0.98;0.60;;;;;;;;;;5034662;28;20772;-67
2023/12/31 14:17:22;;;;;;;3.88;1.00;;;;;;;;;;5038386;28;20898;-66
2023/12/31 14:19:52;;;;;;;2.05;0.70;;;;;;;;;;5028143;28;20893;-66
2023/12/31 14:22:20;;;;;;;0.60;0.50;;;;;;;;;;5035347;28;20430;-66
2023/12/31 14:24:47;;;;;;;3.75;0.52;;;;;;;;;;5034142;28;20431;-66
2023/12/31 14:27:14;;;;;;;2.50;0.60;;;;;;;;;;5032123;28;20502;-66
2023/12/31 14:29:41;;;;;;;1.55;0.70;;;;;;;;;;5041035;28;20437;-66
2023/12/31 14:32:09;;;;;;;1.75;0.68;;;;;;;;;;5035354;28;20443;-66
2023/12/31 14:34:36;;;;;;;1.03;0.70;;;;;;;;;;5033712;28;20445;-67
2023/12/31 14:37:03;;;;;;;2.08;0.70;;;;;;;;;;5038697;28;20840;-66
2023/12/31 14:39:30;;;;;;;2.58;0.80;;;;;;;;;;5038351;28;20430;-66
2023/12/31 14:41:57;;;;;;;1.60;0.70;;;;;;;;;;5030752;28;20805;-66
2023/12/31 14:44:25;;;;;;;0.80;0.60;;;;;;;;;;5039538;28;20922;-66
2023/12/31 14:46:53;;;;;;;3.15;0.88;;;;;;;;;;5027942;28;20512;-66
2023/12/31 14:49:20;;;;;;;1.45;0.73;;;;;;;;;;5041574;28;20437;-66
2023/12/31 14:51:47;;;;;;;2.23;0.53;;;;;;;;;;5042165;28;20815;-66